Time;durP1;ratioP1;P1;durP2;ratioP2;P2;SDS_P1;SDS_P2;PMS_P1;PMS_P2;Temp;Humidity;BMP_temperature;BMP_pressure;BME280_temperature;BME280_humidity;BME280_pressure;Samples;Min_cycle;Max_cycle;Signal;HPM_P1;HPM_P2
2024/01/18 00:01:13;;;;;;;6.63;1.00;;;0.50;99.90;;;;;;5095310;28;20524;-81
2024/01/18 00:03:39;;;;;;;3.65;0.55;;;0.40;99.90;;;;;;5095549;28;20040;-82
2024/01/18 00:06:06;;;;;;;8.57;0.80;;;0.50;99.90;;;;;;5095316;28;20048;-81
2024/01/18 00:08:32;;;;;;;4.97;1.50;;;0.40;99.90;;;;;;5095397;28;20048;-81
2024/01/18 00:10:59;;;;;;;6.03;1.10;;;0.40;99.90;;;;;;5094634;28;20105;-81
2024/01/18 00:13:24;;;;;;;8.43;1.63;;;0.40;99.90;;;;;;5095321;28;20083;-81
2024/01/18 00:15:50;;;;;;;6.00;1.13;;;0.30;99.90;;;;;;5095243;28;20090;-81
2024/01/18 00:18:16;;;;;;;6.50;1.43;;;0.30;99.90;;;;;;5093829;28;20043;-81
2024/01/18 00:20:41;;;;;;;3.73;1.63;;;0.40;99.90;;;;;;5095151;28;20048;-81
2024/01/18 00:23:07;;;;;;;7.60;1.00;;;0.30;99.90;;;;;;5095000;28;20401;-81
2024/01/18 00:25:33;;;;;;;6.03;1.03;;;0.40;99.90;;;;;;5095049;28;20067;-81
2024/01/18 00:27:58;;;;;;;5.97;1.17;;;0.30;99.90;;;;;;5095060;28;20130;-81
2024/01/18 00:30:24;;;;;;;6.57;1.10;;;0.30;99.90;;;;;;5094870;28;20054;-81
2024/01/18 00:32:50;;;;;;;4.90;1.10;;;0.30;99.90;;;;;;5094950;28;20417;-81
2024/01/18 00:35:15;;;;;;;7.63;1.07;;;0.30;99.90;;;;;;5094378;28;20173;-81
2024/01/18 00:37:41;;;;;;;8.07;1.10;;;0.20;99.90;;;;;;5094832;28;20051;-81
2024/01/18 00:40:07;;;;;;;6.23;1.03;;;0.20;99.90;;;;;;5094545;28;20048;-81
2024/01/18 00:42:33;;;;;;;4.70;1.55;;;0.20;99.90;;;;;;5094797;28;20424;-81
2024/01/18 00:44:59;;;;;;;3.40;0.80;;;0.30;99.90;;;;;;5093519;28;20074;-81
2024/01/18 00:47:25;;;;;;;4.30;0.80;;;0.30;99.90;;;;;;5094192;28;20044;-81
2024/01/18 00:49:51;;;;;;;4.90;0.70;;;0.20;99.90;;;;;;5094881;28;20069;-81
2024/01/18 00:52:16;;;;;;;6.50;1.20;;;0.20;99.90;;;;;;5094384;28;20486;-81
2024/01/18 00:54:42;;;;;;;6.60;0.90;;;0.10;99.90;;;;;;5094558;28;20131;-81
2024/01/18 00:57:08;;;;;;;3.17;0.80;;;0.10;99.90;;;;;;5094340;28;20044;-81
2024/01/18 00:59:33;;;;;;;5.20;0.97;;;0.10;99.90;;;;;;5092226;28;20581;-82
2024/01/18 01:01:59;;;;;;;3.20;0.97;;;0.10;99.90;;;;;;5094328;28;20055;-82
2024/01/18 01:04:25;;;;;;;5.93;1.07;;;0.10;99.90;;;;;;5093849;28;20067;-81
2024/01/18 01:06:50;;;;;;;4.30;0.83;;;0.20;99.90;;;;;;5094337;28;20048;-81
2024/01/18 01:09:16;;;;;;;4.10;1.00;;;0.10;99.90;;;;;;5094084;28;20205;-81
2024/01/18 01:11:42;;;;;;;3.37;1.00;;;0.10;99.90;;;;;;5094183;28;20044;-82
2024/01/18 01:14:07;;;;;;;3.53;1.00;;;0.10;99.90;;;;;;5093067;28;20048;-81
2024/01/18 01:16:33;;;;;;;4.57;1.17;;;0.10;99.90;;;;;;5094233;28;20102;-81
2024/01/18 01:18:59;;;;;;;2.10;0.67;;;0.00;99.90;;;;;;5094247;28;20378;-82
2024/01/18 01:21:24;;;;;;;2.67;0.60;;;0.00;99.90;;;;;;5093513;28;20082;-81
2024/01/18 01:23:51;;;;;;;2.23;0.90;;;0.00;99.90;;;;;;5094126;28;20048;-82
2024/01/18 01:26:17;;;;;;;2.60;0.60;;;0.10;99.90;;;;;;5093836;28;20075;-82
2024/01/18 01:28:43;;;;;;;3.03;0.80;;;0.00;99.90;;;;;;5094134;28;20081;-81
2024/01/18 01:31:09;;;;;;;2.47;0.80;;;-0.10;99.90;;;;;;5092450;28;20164;-80
2024/01/18 01:33:41;;;;;;;2.90;0.80;;;-0.10;99.90;;;;;;5093529;28;20275;-82
2024/01/18 01:36:07;;;;;;;4.75;0.70;;;-0.20;99.90;;;;;;5093886;28;20704;-82
2024/01/18 01:38:33;;;;;;;4.90;1.23;;;-0.10;99.90;;;;;;5093665;28;20122;-82
2024/01/18 01:41:00;;;;;;;3.03;1.10;;;-0.20;99.90;;;;;;5093685;28;20054;-82
2024/01/18 01:43:27;;;;;;;5.43;0.95;;;-0.30;99.90;;;;;;5093510;28;20044;-82
2024/01/18 01:45:53;;;;;;;2.90;0.90;;;-0.20;99.90;;;;;;5093913;28;20135;-82
2024/01/18 01:48:19;;;;;;;5.83;0.97;;;-0.30;99.90;;;;;;5093542;28;20075;-82
2024/01/18 01:50:47;;;;;;;2.92;0.80;;;-0.40;99.90;;;;;;5092761;28;20059;-82
2024/01/18 01:53:14;;;;;;;5.47;1.13;;;-0.30;99.90;;;;;;5093347;28;20051;-81
2024/01/18 01:55:42;;;;;;;3.63;0.80;;;-0.40;99.90;;;;;;5093611;28;20048;-82
2024/01/18 01:58:08;;;;;;;4.30;0.82;;;-0.40;99.90;;;;;;5093395;28;20497;-82
2024/01/18 02:00:34;;;;;;;2.58;0.80;;;-0.40;99.90;;;;;;5091139;28;20062;-82
2024/01/18 02:03:00;;;;;;;5.30;1.20;;;-0.40;99.90;;;;;;5092729;28;20118;-82
2024/01/18 02:05:27;;;;;;;3.07;0.80;;;-0.40;99.90;;;;;;5092464;28;20098;-82
2024/01/18 02:07:54;;;;;;;4.00;0.90;;;-0.50;99.90;;;;;;5092755;28;20639;-82
2024/01/18 02:10:20;;;;;;;3.45;1.05;;;-0.40;99.90;;;;;;5091278;28;20047;-82
2024/01/18 02:12:48;;;;;;;4.80;0.70;;;-0.40;99.90;;;;;;5092416;28;20040;-82
2024/01/18 02:15:13;;;;;;;7.60;0.90;;;-0.40;99.90;;;;;;5092676;28;20048;-82
2024/01/18 02:17:39;;;;;;;2.57;0.70;;;-0.50;99.90;;;;;;5092524;28;20390;-82
2024/01/18 02:20:05;;;;;;;5.87;0.80;;;-0.50;99.90;;;;;;5092394;28;20044;-82
2024/01/18 02:22:34;;;;;;;3.53;0.70;;;-0.50;99.90;;;;;;5090968;28;20143;-82
2024/01/18 02:25:25;;;;;;;4.43;0.70;;;-0.50;99.90;;;;;;5091176;28;20043;-82
2024/01/18 02:27:55;;;;;;;4.68;0.70;;;-0.40;99.90;;;;;;5092708;28;20409;-82
2024/01/18 02:30:20;;;;;;;6.95;0.77;;;-0.50;99.90;;;;;;5092179;28;20109;-81
2024/01/18 02:32:46;;;;;;;3.00;0.60;;;-0.50;99.90;;;;;;5092125;28;20379;-82
2024/01/18 02:35:12;;;;;;;3.37;0.70;;;-0.50;99.90;;;;;;5091240;28;20044;-82
2024/01/18 02:37:38;;;;;;;5.57;0.95;;;-0.50;99.90;;;;;;5092004;28;20040;-82
2024/01/18 02:40:05;;;;;;;2.87;0.63;;;-0.50;99.90;;;;;;5090993;28;20109;-82
2024/01/18 02:42:32;;;;;;;8.32;0.98;;;-0.50;99.90;;;;;;5091865;28;20044;-82
2024/01/18 02:44:57;;;;;;;1.88;0.60;;;-0.50;99.90;;;;;;5091090;28;20050;-82
2024/01/18 02:47:27;;;;;;;3.37;0.70;;;-0.50;99.90;;;;;;5091580;28;20044;-82
2024/01/18 02:49:53;;;;;;;4.75;0.90;;;-0.50;99.90;;;;;;5092048;28;20278;-82
2024/01/18 02:52:19;;;;;;;3.53;0.57;;;-0.40;99.90;;;;;;5091796;28;20097;-77
2024/01/18 02:54:44;;;;;;;4.17;0.80;;;-0.50;99.90;;;;;;5092077;28;20048;-82
2024/01/18 02:57:10;;;;;;;4.07;0.80;;;-0.50;99.90;;;;;;5091666;28;20379;-82
2024/01/18 02:59:36;;;;;;;3.63;0.60;;;-0.50;99.90;;;;;;5052011;28;1125255;-82
2024/01/18 03:02:02;;;;;;;6.60;0.90;;;-0.60;99.90;;;;;;5092931;28;20419;-82
2024/01/18 03:04:27;;;;;;;3.97;0.80;;;-0.60;99.90;;;;;;5092725;28;20040;-81
2024/01/18 03:06:53;;;;;;;3.60;0.70;;;-0.60;99.90;;;;;;5092953;28;20477;-82
2024/01/18 03:09:19;;;;;;;5.63;0.67;;;-0.70;99.90;;;;;;5092580;28;20040;-82
2024/01/18 03:11:44;;;;;;;2.00;0.80;;;-0.70;99.90;;;;;;5092970;28;20051;-81
2024/01/18 03:14:11;;;;;;;3.93;0.60;;;-0.80;99.90;;;;;;5075160;28;20040;-82
2024/01/18 03:16:42;;;;;;;4.35;0.60;;;-0.80;99.90;;;;;;5092604;28;20054;-82
2024/01/18 03:19:12;;;;;;;4.10;0.75;;;-0.80;99.90;;;;;;5093047;28;20093;-82
2024/01/18 03:21:38;;;;;;;5.28;0.90;;;-0.80;99.90;;;;;;5091537;28;20044;-82
2024/01/18 03:24:04;;;;;;;4.70;0.98;;;-0.80;99.90;;;;;;5096064;28;20598;-82
2024/01/18 03:26:30;;;;;;;3.13;0.77;;;-0.80;99.90;;;;;;5096086;28;20048;-82
2024/01/18 03:28:56;;;;;;;6.40;0.90;;;-0.60;99.90;;;;;;5096177;28;20048;-81
2024/01/18 03:31:21;;;;;;;6.23;0.90;;;-0.60;99.90;;;;;;5096329;28;20119;-81
2024/01/18 03:33:47;;;;;;;5.57;1.03;;;-0.40;99.90;;;;;;5095985;28;20044;-82
2024/01/18 03:36:13;;;;;;;5.57;0.90;;;-0.40;99.90;;;;;;5096277;28;20048;-82
2024/01/18 03:38:38;;;;;;;4.33;0.87;;;-0.40;99.90;;;;;;5095939;28;20044;-81
2024/01/18 03:41:04;;;;;;;3.80;0.50;;;-0.40;99.90;;;;;;5095956;28;20371;-81
2024/01/18 03:43:30;;;;;;;2.00;0.60;;;-0.30;99.90;;;;;;5095706;28;20091;-81
2024/01/18 03:45:55;;;;;;;6.73;1.37;;;-0.20;99.90;;;;;;5094645;28;20370;-81
2024/01/18 03:48:21;;;;;;;0.90;0.40;;;-0.20;99.90;;;;;;5095954;28;20048;-81
2024/01/18 03:50:47;;;;;;;6.97;0.53;;;-0.10;99.90;;;;;;5095619;28;20493;-81
2024/01/18 03:53:12;;;;;;;4.77;0.50;;;0.00;99.90;;;;;;5095831;28;20523;-81
2024/01/18 03:55:38;;;;;;;2.07;1.03;;;0.20;99.90;;;;;;5095529;28;20048;-81
2024/01/18 03:58:04;;;;;;;4.47;0.70;;;0.10;99.90;;;;;;5094737;28;20052;-81
2024/01/18 04:00:30;;;;;;;2.93;0.40;;;0.10;99.90;;;;;;5095128;28;20051;-81
2024/01/18 04:02:55;;;;;;;3.50;0.33;;;0.20;99.90;;;;;;5095504;28;20051;-81
2024/01/18 04:05:21;;;;;;;3.57;0.50;;;0.20;99.90;;;;;;5095554;28;20040;-81
2024/01/18 04:07:47;;;;;;;1.90;0.40;;;0.10;99.90;;;;;;5095268;28;20083;-81
2024/01/18 04:10:13;;;;;;;2.93;0.60;;;0.10;99.90;;;;;;5095161;28;20086;-81
2024/01/18 04:12:38;;;;;;;3.53;0.70;;;0.00;99.90;;;;;;5095142;28;20051;-81
2024/01/18 04:15:05;;;;;;;4.17;0.50;;;-0.10;99.90;;;;;;5094706;28;20395;-81
2024/01/18 04:17:31;;;;;;;1.30;0.50;;;-0.10;99.90;;;;;;5095091;28;20084;-81
2024/01/18 04:19:57;;;;;;;2.97;0.50;;;-0.20;99.90;;;;;;5095543;28;20430;-81
2024/01/18 04:22:23;;;;;;;2.23;0.53;;;-0.20;99.90;;;;;;5095085;28;20040;-81
2024/01/18 04:24:49;;;;;;;2.13;0.60;;;-0.30;99.90;;;;;;5095038;28;20126;-81
2024/01/18 04:27:15;;;;;;;4.45;0.75;;;-0.30;99.90;;;;;;5095122;28;20147;-81
2024/01/18 04:29:41;;;;;;;4.07;0.60;;;-0.30;99.90;;;;;;5094845;28;20486;-81
2024/01/18 04:32:07;;;;;;;3.42;0.60;;;-0.30;99.90;;;;;;5095122;28;20040;-82
2024/01/18 04:34:33;;;;;;;4.50;0.70;;;-0.30;99.90;;;;;;5093950;28;20130;-81
2024/01/18 04:36:59;;;;;;;7.60;1.00;;;-0.30;99.90;;;;;;5094991;28;20093;-82
2024/01/18 04:39:27;;;;;;;2.08;0.45;;;-0.30;99.90;;;;;;5094704;28;20094;-82
2024/01/18 04:41:52;;;;;;;4.55;0.40;;;-0.30;99.90;;;;;;5094743;28;20054;-82
2024/01/18 04:44:18;;;;;;;0.80;0.30;;;-0.30;99.90;;;;;;5093618;28;20043;-82
2024/01/18 04:46:44;;;;;;;4.23;0.50;;;-0.30;99.90;;;;;;5093330;28;20048;-82
2024/01/18 04:49:10;;;;;;;3.40;0.60;;;-0.30;99.90;;;;;;5094736;28;20135;-82
2024/01/18 04:51:35;;;;;;;5.37;0.60;;;-0.40;99.90;;;;;;5094359;28;20062;-81
2024/01/18 04:54:01;;;;;;;2.03;0.40;;;-0.40;99.90;;;;;;5094550;28;20051;-82
2024/01/18 04:56:27;;;;;;;2.50;0.60;;;-0.30;99.90;;;;;;5094588;28;20039;-82
2024/01/18 04:58:53;;;;;;;5.33;1.00;;;-0.30;99.90;;;;;;5093951;28;20481;-81
2024/01/18 05:01:19;;;;;;;2.80;0.60;;;-0.40;99.90;;;;;;5094469;28;20040;-82
2024/01/18 05:03:47;;;;;;;3.67;0.50;;;-0.40;99.90;;;;;;5094243;28;20055;-81
2024/01/18 05:06:13;;;;;;;5.38;1.30;;;-0.30;99.90;;;;;;5093235;28;20101;-82
2024/01/18 05:08:39;;;;;;;5.37;0.90;;;-0.30;99.90;;;;;;5094107;28;20052;-81
2024/01/18 05:11:04;;;;;;;7.07;0.80;;;-0.40;99.90;;;;;;5094332;28;20554;-81
2024/01/18 05:13:30;;;;;;;4.70;0.97;;;-0.40;99.90;;;;;;5094297;28;20048;-81
2024/01/18 05:15:59;;;;;;;5.47;1.13;;;-0.40;99.90;;;;;;5094305;28;20047;-82
2024/01/18 05:18:24;;;;;;;3.95;1.10;;;-0.30;99.90;;;;;;5094318;28;20087;-82
2024/01/18 05:20:50;;;;;;;5.77;0.90;;;-0.40;99.90;;;;;;5093805;28;20142;-82
2024/01/18 05:23:16;;;;;;;3.67;1.00;;;-0.40;99.90;;;;;;5093356;28;20097;-81
2024/01/18 05:25:42;;;;;;;3.60;0.87;;;-0.40;99.90;;;;;;5093754;28;20067;-81
2024/01/18 05:28:07;;;;;;;2.70;0.80;;;-0.40;99.90;;;;;;5094034;28;20474;-81
2024/01/18 05:30:33;;;;;;;8.43;1.00;;;-0.50;99.90;;;;;;5093880;28;20044;-82
2024/01/18 05:32:59;;;;;;;6.03;0.70;;;-0.40;99.90;;;;;;5093419;28;20040;-81
2024/01/18 05:35:25;;;;;;;4.97;0.90;;;-0.40;99.90;;;;;;5094052;28;20339;-82
2024/01/18 05:37:50;;;;;;;7.13;1.20;;;-0.20;99.90;;;;;;5093240;28;20040;-81
2024/01/18 05:40:17;;;;;;;7.40;1.10;;;-0.40;99.90;;;;;;5092534;28;20059;-82
2024/01/18 05:42:42;;;;;;;2.95;0.90;;;-0.40;99.90;;;;;;5092272;28;20047;-81
2024/01/18 05:45:08;;;;;;;5.87;1.50;;;-0.40;99.90;;;;;;5093420;28;20036;-82
2024/01/18 05:47:34;;;;;;;2.73;0.77;;;-0.40;99.90;;;;;;5093835;28;20052;-82
2024/01/18 05:50:00;;;;;;;2.28;0.82;;;-0.40;99.90;;;;;;5093362;28;20123;-82
2024/01/18 05:52:29;;;;;;;5.13;1.30;;;-0.40;99.90;;;;;;5093591;28;20120;-81
2024/01/18 05:54:54;;;;;;;3.58;0.90;;;-0.50;99.90;;;;;;5092180;28;20149;-82
2024/01/18 05:57:20;;;;;;;4.77;1.20;;;-0.60;99.90;;;;;;5093259;28;20478;-82
2024/01/18 05:59:46;;;;;;;4.27;0.80;;;-0.50;99.90;;;;;;5093029;28;20067;-82
2024/01/18 06:02:11;;;;;;;4.73;1.03;;;-0.60;99.90;;;;;;5093590;28;20048;-81
2024/01/18 06:04:37;;;;;;;6.40;1.03;;;-0.60;99.90;;;;;;5093397;28;20394;-82
2024/01/18 06:07:03;;;;;;;4.67;1.20;;;-0.60;99.90;;;;;;5093251;28;20055;-82
2024/01/18 06:09:29;;;;;;;6.60;1.05;;;-0.60;99.90;;;;;;5075716;28;20061;-81
2024/01/18 06:11:54;;;;;;;8.90;1.40;;;-0.60;99.90;;;;;;5093208;28;20040;-81
2024/01/18 06:14:20;;;;;;;5.80;0.90;;;-0.70;99.90;;;;;;5093280;28;20544;-81
2024/01/18 06:16:46;;;;;;;5.18;0.90;;;-0.70;99.90;;;;;;5093057;28;20040;-81
2024/01/18 06:19:12;;;;;;;4.97;0.93;;;-0.70;99.90;;;;;;5093313;28;20040;-81
2024/01/18 06:21:38;;;;;;;4.80;1.30;;;-0.70;99.90;;;;;;5093351;28;20036;-81
2024/01/18 06:24:04;;;;;;;4.97;0.93;;;-0.70;99.90;;;;;;5092981;28;20059;-81
2024/01/18 06:26:30;;;;;;;5.43;1.07;;;-0.80;99.90;;;;;;5093166;28;20051;-81
2024/01/18 06:28:55;;;;;;;7.17;1.40;;;-0.80;99.90;;;;;;5093092;28;20357;-81
2024/01/18 06:31:26;;;;;;;3.47;0.80;;;-0.90;99.90;;;;;;5092936;28;20497;-81
2024/01/18 06:33:56;;;;;;;8.45;1.55;;;-0.80;99.90;;;;;;5092939;28;20048;-81
2024/01/18 06:36:24;;;;;;;6.82;1.35;;;-0.80;99.90;;;;;;5092458;28;20052;-81
2024/01/18 06:38:50;;;;;;;3.72;1.08;;;-0.90;99.90;;;;;;5092885;28;20047;-81
2024/01/18 06:41:16;;;;;;;6.20;1.30;;;-0.90;99.90;;;;;;5093014;28;20048;-81
2024/01/18 06:43:42;;;;;;;6.68;1.20;;;-0.90;99.90;;;;;;5093069;28;20086;-81
2024/01/18 06:46:18;;;;;;;8.07;1.67;;;-0.90;99.90;;;;;;5091548;28;20079;-81
2024/01/18 06:48:51;;;;;;;5.72;1.40;;;-1.00;99.90;;;;;;5093241;28;20065;-81
2024/01/18 06:51:17;;;;;;;3.60;1.27;;;-0.90;99.90;;;;;;5093142;28;20043;-81
2024/01/18 06:53:43;;;;;;;6.27;1.67;;;-1.00;99.90;;;;;;5093008;28;20431;-81
2024/01/18 06:56:12;;;;;;;7.50;1.63;;;-1.00;99.90;;;;;;5092803;28;20493;-81
2024/01/18 06:58:38;;;;;;;4.68;1.40;;;-1.00;99.90;;;;;;5096682;28;20117;-81
2024/01/18 07:01:04;;;;;;;8.00;1.90;;;-1.10;99.90;;;;;;5096152;28;20059;-81
2024/01/18 07:03:30;;;;;;;4.75;1.33;;;-1.00;99.90;;;;;;5095518;28;20051;-81
2024/01/18 07:05:56;;;;;;;8.43;2.10;;;-1.00;99.90;;;;;;5096481;28;20097;-81
2024/01/18 07:08:24;;;;;;;7.25;1.85;;;-1.00;99.90;;;;;;5095391;28;20044;-81
2024/01/18 07:10:50;;;;;;;7.20;1.67;;;-1.10;99.90;;;;;;5096768;28;20443;-81
2024/01/18 07:13:16;;;;;;;8.85;1.67;;;-1.00;99.90;;;;;;5096463;28;20051;-81
2024/01/18 07:15:41;;;;;;;6.53;1.80;;;-1.10;99.90;;;;;;5096476;28;20044;-81
2024/01/18 07:18:07;;;;;;;7.07;1.93;;;-1.10;99.90;;;;;;5095238;28;20169;-81
2024/01/18 07:20:33;;;;;;;11.93;2.73;;;-1.10;99.90;;;;;;5096287;28;20048;-81
2024/01/18 07:22:58;;;;;;;7.83;2.50;;;-1.20;99.90;;;;;;5094934;28;20051;-80
2024/01/18 07:25:24;;;;;;;5.83;1.73;;;-1.10;99.90;;;;;;5095331;28;20157;-80
2024/01/18 07:27:50;;;;;;;8.27;1.77;;;-1.10;99.90;;;;;;5096283;28;20054;-80
2024/01/18 07:30:16;;;;;;;8.90;1.57;;;-1.10;99.90;;;;;;5094951;28;20048;-80
2024/01/18 07:32:44;;;;;;;7.25;1.55;;;-1.10;99.90;;;;;;5096331;28;20043;-80
2024/01/18 07:35:10;;;;;;;5.63;1.95;;;-1.10;99.90;;;;;;5095949;28;20058;-80
2024/01/18 07:37:36;;;;;;;8.82;2.03;;;-1.10;99.90;;;;;;5096060;28;20052;-80
2024/01/18 07:40:02;;;;;;;7.63;2.07;;;-1.10;99.90;;;;;;5095788;28;20044;-80
2024/01/18 07:42:28;;;;;;;5.80;1.70;;;-1.10;99.90;;;;;;5096126;28;20079;-81
2024/01/18 07:44:54;;;;;;;5.97;1.83;;;-1.10;99.90;;;;;;5096163;28;20087;-75
2024/01/18 07:47:20;;;;;;;8.20;2.60;;;-1.00;99.90;;;;;;5078105;28;20478;-80
2024/01/18 07:49:46;;;;;;;10.10;3.60;;;-0.90;99.90;;;;;;5095771;28;20051;-80
2024/01/18 07:52:15;;;;;;;12.75;3.30;;;-0.90;99.90;;;;;;5095602;28;20119;-81
2024/01/18 07:54:41;;;;;;;16.65;3.72;;;-0.90;99.90;;;;;;5095710;28;20444;-81
2024/01/18 07:57:06;;;;;;;10.13;2.60;;;-0.90;99.90;;;;;;5095601;28;20051;-80
2024/01/18 07:59:32;;;;;;;6.50;2.00;;;-0.90;99.90;;;;;;5095681;28;20075;-81
2024/01/18 08:01:59;;;;;;;6.57;2.20;;;-0.90;99.90;;;;;;5095319;28;20044;-79
2024/01/18 08:04:25;;;;;;;6.80;2.67;;;-0.80;99.90;;;;;;5095799;28;20087;-80
2024/01/18 08:06:51;;;;;;;7.85;2.90;;;-0.80;99.90;;;;;;5095528;28;20055;-80
2024/01/18 08:09:16;;;;;;;6.43;2.40;;;-0.80;99.90;;;;;;5095189;28;20048;-80
2024/01/18 08:11:42;;;;;;;9.00;1.90;;;-0.80;99.90;;;;;;5095109;28;20160;-80
2024/01/18 08:14:08;;;;;;;5.97;2.40;;;-0.80;99.90;;;;;;5095216;28;20044;-80
2024/01/18 08:16:34;;;;;;;8.07;1.70;;;-0.80;99.90;;;;;;5095144;28;20517;-81
2024/01/18 08:18:59;;;;;;;5.83;1.50;;;-0.80;99.90;;;;;;5095025;28;20039;-80
2024/01/18 08:21:25;;;;;;;9.53;1.50;;;-0.80;99.90;;;;;;5095477;28;20131;-80
2024/01/18 08:23:51;;;;;;;6.60;1.50;;;-0.70;99.90;;;;;;5095189;28;20040;-80
2024/01/18 08:26:17;;;;;;;9.03;2.30;;;-0.70;99.90;;;;;;5094917;28;20048;-80
2024/01/18 08:28:43;;;;;;;5.97;1.60;;;-0.70;99.90;;;;;;5095104;28;20056;-80
2024/01/18 08:31:09;;;;;;;5.68;1.67;;;-0.70;99.90;;;;;;5094653;28;20559;-80
2024/01/18 08:33:35;;;;;;;6.75;1.63;;;-0.70;99.90;;;;;;5094682;28;20413;-80
2024/01/18 08:36:01;;;;;;;4.87;1.60;;;-0.60;99.90;;;;;;5094853;28;20036;-79
2024/01/18 08:38:27;;;;;;;4.63;1.40;;;-0.60;99.90;;;;;;5095200;28;20048;-80
2024/01/18 08:40:53;;;;;;;5.93;1.43;;;-0.50;99.90;;;;;;5094935;28;20090;-80
2024/01/18 08:43:22;;;;;;;7.17;1.70;;;-0.50;99.90;;;;;;5094566;28;20047;-80
2024/01/18 08:45:48;;;;;;;9.82;1.85;;;-0.40;99.90;;;;;;5094934;28;20052;-80
2024/01/18 08:48:14;;;;;;;6.05;2.42;;;-0.40;99.90;;;;;;5094829;28;20048;-80
2024/01/18 08:50:40;;;;;;;8.07;2.22;;;-0.30;99.90;;;;;;5094713;28;20050;-80
2024/01/18 08:53:06;;;;;;;3.53;1.50;;;-0.30;99.90;;;;;;5094139;28;20138;-80
2024/01/18 08:55:32;;;;;;;7.18;1.55;;;-0.30;99.90;;;;;;5094887;28;20464;-80
2024/01/18 08:57:58;;;;;;;8.43;1.87;;;-0.30;99.90;;;;;;5094565;28;20076;-80
2024/01/18 09:00:23;;;;;;;6.43;1.87;;;-0.20;99.90;;;;;;5093847;28;20139;-80
2024/01/18 09:02:49;;;;;;;7.90;2.57;;;0.00;99.90;;;;;;5094401;28;20048;-80
2024/01/18 09:05:15;;;;;;;10.93;3.70;;;0.10;99.90;;;;;;5094131;28;20525;-80
2024/01/18 09:07:41;;;;;;;12.43;3.20;;;0.10;99.90;;;;;;5094490;28;20077;-80
2024/01/18 09:10:08;;;;;;;10.07;2.85;;;0.10;99.90;;;;;;5094025;28;20048;-81
2024/01/18 09:12:35;;;;;;;21.50;13.05;;;0.10;99.90;;;;;;5094250;28;20044;-80
2024/01/18 09:15:01;;;;;;;22.63;12.30;;;0.10;99.90;;;;;;5094403;28;20047;-81
2024/01/18 09:17:27;;;;;;;17.73;7.80;;;0.10;99.90;;;;;;5093977;28;20443;-81
2024/01/18 09:19:52;;;;;;;10.63;3.27;;;0.10;99.90;;;;;;5093795;28;20040;-81
2024/01/18 09:22:18;;;;;;;9.23;4.50;;;0.10;99.90;;;;;;5094094;28;20047;-81
2024/01/18 09:24:44;;;;;;;8.73;2.37;;;0.10;99.90;;;;;;5094011;28;20149;-81
2024/01/18 09:27:11;;;;;;;18.83;8.73;;;0.20;99.90;;;;;;5093875;28;20044;-81
2024/01/18 09:29:37;;;;;;;23.98;13.60;;;0.10;99.90;;;;;;5094037;28;20071;-81
2024/01/18 09:32:06;;;;;;;10.55;6.68;;;0.20;99.90;;;;;;5093923;28;20371;-81
2024/01/18 09:34:34;;;;;;;9.25;4.75;;;0.10;99.90;;;;;;5093734;28;20048;-81
2024/01/18 09:37:01;;;;;;;8.43;3.00;;;0.20;99.90;;;;;;5094008;28;20043;-81
2024/01/18 09:39:27;;;;;;;24.40;14.00;;;0.20;99.90;;;;;;5092459;28;20055;-81
2024/01/18 09:41:53;;;;;;;21.73;13.17;;;0.30;99.90;;;;;;5093736;28;20040;-81
2024/01/18 09:44:32;;;;;;;51.05;32.22;;;0.30;99.90;;;;;;5093509;28;20054;-81
2024/01/18 09:47:03;;;;;;;42.95;25.88;;;0.30;99.90;;;;;;5093898;28;20059;-81
2024/01/18 09:49:33;;;;;;;18.30;8.73;;;0.30;99.90;;;;;;5093512;28;20044;-81
2024/01/18 09:52:00;;;;;;;12.43;5.85;;;0.30;99.90;;;;;;5094008;28;20131;-81
2024/01/18 09:54:26;;;;;;;10.13;5.53;;;0.40;99.90;;;;;;5093376;28;20075;-81
2024/01/18 09:56:53;;;;;;;9.93;3.07;;;0.40;99.90;;;;;;5093555;28;20482;-80
2024/01/18 09:59:21;;;;;;;7.20;2.58;;;0.40;99.90;;;;;;5092054;28;20048;-80
2024/01/18 10:01:47;;;;;;;8.30;1.70;;;0.50;99.90;;;;;;5093130;28;20493;-81
2024/01/18 10:04:14;;;;;;;6.53;1.70;;;0.60;99.90;;;;;;5093410;28;20048;-80
2024/01/18 10:06:41;;;;;;;7.22;1.40;;;0.80;99.90;;;;;;5093464;28;20137;-81
2024/01/18 10:09:11;;;;;;;7.70;1.10;;;1.00;99.90;;;;;;5093427;28;20051;-82
2024/01/18 10:11:41;;;;;;;7.05;1.23;;;1.30;99.90;;;;;;5092274;28;20460;-82
2024/01/18 10:14:07;;;;;;;7.50;1.58;;;1.40;99.90;;;;;;5092301;28;20143;-82
2024/01/18 10:16:37;;;;;;;6.25;1.17;;;1.40;99.90;;;;;;5093222;28;20507;-81
2024/01/18 10:19:06;;;;;;;4.22;1.23;;;1.40;99.90;;;;;;5093564;28;20044;-81
2024/01/18 10:21:33;;;;;;;5.43;1.80;;;1.40;99.90;;;;;;5093053;28;20084;-81
2024/01/18 10:24:00;;;;;;;6.40;1.33;;;1.40;99.90;;;;;;5092052;28;20048;-82
2024/01/18 10:26:31;;;;;;;4.90;1.40;;;1.30;99.90;;;;;;5093021;28;20047;-81
2024/01/18 10:28:57;;;;;;;7.45;1.70;;;1.30;99.90;;;;;;5093209;28;20040;-81
2024/01/18 10:31:24;;;;;;;6.90;2.05;;;1.40;99.90;;;;;;5093064;28;20044;-81
2024/01/18 10:33:50;;;;;;;3.90;1.30;;;1.30;99.90;;;;;;5097620;28;20047;-81
2024/01/18 10:36:15;;;;;;;8.43;1.40;;;1.40;99.90;;;;;;5097233;28;20451;-79
2024/01/18 10:38:41;;;;;;;6.57;1.33;;;1.20;99.90;;;;;;5097439;28;20286;-81
2024/01/18 10:41:08;;;;;;;15.43;4.60;;;1.20;99.90;;;;;;5097253;28;20052;-81
2024/01/18 10:43:35;;;;;;;6.68;2.05;;;1.20;99.90;;;;;;5096963;28;20052;-81
2024/01/18 10:46:02;;;;;;;5.32;1.20;;;1.10;99.90;;;;;;5096412;28;20043;-81
2024/01/18 10:48:31;;;;;;;8.55;1.20;;;1.10;99.90;;;;;;5095843;28;20043;-81
2024/01/18 10:50:58;;;;;;;5.03;1.20;;;1.10;99.90;;;;;;5096981;28;20044;-81
2024/01/18 10:53:25;;;;;;;25.15;16.02;;;1.10;99.90;;;;;;5096772;28;20063;-81
2024/01/18 10:55:52;;;;;;;55.70;41.15;;;1.10;99.90;;;;;;5096937;28;20489;-82
2024/01/18 10:58:21;;;;;;;62.80;41.30;;;1.30;99.90;;;;;;5095724;28;20055;-75
2024/01/18 11:00:47;;;;;;;14.73;8.85;;;1.40;99.90;;;;;;5097248;28;20132;-82
2024/01/18 11:03:17;;;;;;;9.32;2.45;;;1.40;99.90;;;;;;5096994;28;20040;-84
2024/01/18 11:05:47;;;;;;;7.28;2.72;;;1.50;99.90;;;;;;5096580;28;20098;-82
2024/01/18 11:08:13;;;;;;;7.10;0.90;;;1.60;99.90;;;;;;5096669;28;20508;-83
2024/01/18 11:10:40;;;;;;;10.38;1.00;;;1.60;99.90;;;;;;5096364;28;20044;-83
2024/01/18 11:13:07;;;;;;;2.50;0.68;;;1.50;99.90;;;;;;5096569;28;20044;-84
2024/01/18 11:15:34;;;;;;;7.50;2.80;;;1.40;99.90;;;;;;5096323;28;20048;-83
2024/01/18 11:18:11;;;;;;;5.35;1.40;;;1.40;99.90;;;;;;5095579;28;20088;-84
2024/01/18 11:20:59;;;;;;;5.63;1.20;;;1.30;99.90;;;;;;5096104;28;20486;-84
2024/01/18 11:23:43;;;;;;;7.65;1.15;;;1.40;99.90;;;;;;5096226;28;20056;-85
2024/01/18 11:26:18;;;;;;;2.65;0.90;;;1.30;99.90;;;;;;5095494;28;20051;-85
2024/01/18 11:28:44;;;;;;;8.30;1.05;;;1.30;99.90;;;;;;5096297;28;20070;-85
2024/01/18 11:31:10;;;;;;;5.73;1.40;;;1.20;99.90;;;;;;5095329;28;20052;-86
2024/01/18 11:33:37;;;;;;;6.13;1.40;;;1.20;99.90;;;;;;5096313;28;20048;-86
2024/01/18 11:36:03;;;;;;;5.55;1.42;;;1.10;99.90;;;;;;5113341;28;20055;-85
2024/01/18 11:38:31;;;;;;;5.10;1.50;;;1.10;99.90;;;;;;5098560;28;20048;-85
2024/01/18 11:40:58;;;;;;;7.50;1.25;;;1.10;99.90;;;;;;5103413;28;20282;-87
2024/01/18 11:43:24;;;;;;;4.18;1.20;;;1.00;99.90;;;;;;5095892;28;20051;-80
2024/01/18 11:45:51;;;;;;;5.57;1.27;;;1.00;99.90;;;;;;5096343;28;20619;-87
2024/01/18 11:48:18;;;;;;;4.40;1.55;;;1.00;99.90;;;;;;5096148;28;20055;-87
2024/01/18 11:50:44;;;;;;;4.38;1.27;;;1.00;99.90;;;;;;5095817;28;20055;-87
2024/01/18 11:53:14;;;;;;;4.67;1.23;;;1.00;99.90;;;;;;5095860;28;20048;-87
2024/01/18 11:55:46;;;;;;;6.57;1.35;;;0.90;99.90;;;;;;5095576;28;20546;-87
2024/01/18 11:58:12;;;;;;;3.90;1.40;;;1.00;99.90;;;;;;5095945;28;20051;-87
2024/01/18 12:00:37;;;;;;;7.37;1.00;;;1.10;99.90;;;;;;5095685;28;20048;-87
2024/01/18 12:03:05;;;;;;;16.60;8.33;;;1.20;99.90;;;;;;5095513;28;20052;-87
2024/01/18 12:05:31;;;;;;;11.35;5.63;;;1.30;99.90;;;;;;5095391;28;20131;-87
2024/01/18 12:07:57;;;;;;;7.47;2.10;;;1.30;99.90;;;;;;5095475;28;20117;-87
2024/01/18 12:10:26;;;;;;;10.55;2.58;;;1.30;99.90;;;;;;5095464;28;20105;-87
2024/01/18 12:12:53;;;;;;;11.20;3.30;;;1.30;99.90;;;;;;5095039;28;20543;-87
2024/01/18 12:15:18;;;;;;;9.70;3.25;;;1.40;99.90;;;;;;5095111;28;20504;-87
2024/01/18 12:17:46;;;;;;;12.43;3.77;;;1.30;99.90;;;;;;5095150;28;20051;-87
2024/01/18 12:20:15;;;;;;;11.25;5.22;;;1.30;99.90;;;;;;5095308;28;20290;-88
2024/01/18 12:22:43;;;;;;;12.30;5.00;;;1.30;99.90;;;;;;5094956;28;20096;-87
2024/01/18 12:25:09;;;;;;;6.20;2.33;;;1.20;99.90;;;;;;5095200;28;20051;-87
2024/01/18 12:27:34;;;;;;;7.83;1.60;;;1.20;99.90;;;;;;5095050;28;20048;-86
2024/01/18 12:30:01;;;;;;;6.67;1.57;;;1.30;99.90;;;;;;5095151;28;20040;-86
2024/01/18 12:32:27;;;;;;;6.00;1.60;;;1.30;99.90;;;;;;5095052;28;20052;-86
2024/01/18 12:34:57;;;;;;;6.47;1.70;;;1.40;99.90;;;;;;5094806;28;20043;-86
2024/01/18 12:37:23;;;;;;;9.32;1.50;;;1.40;99.90;;;;;;5095045;28;20130;-86
2024/01/18 12:39:53;;;;;;;7.95;1.40;;;1.40;99.90;;;;;;5076579;28;20079;-86
2024/01/18 12:42:20;;;;;;;5.57;1.30;;;1.40;99.90;;;;;;5095000;28;20405;-85
2024/01/18 12:44:54;;;;;;;7.03;1.50;;;1.40;99.90;;;;;;5094644;28;20058;-86
2024/01/18 12:47:19;;;;;;;7.38;1.85;;;1.50;99.90;;;;;;5095096;28;20066;-85